sensor_id;sensor_type;location;lat;lon;timestamp;temperature;humidity
59857;DHT22;45733;52.668;6.860;2022-08-19T00:01:19;16.50;99.90
59857;DHT22;45733;52.668;6.860;2022-08-19T00:03:44;16.40;99.90
59857;DHT22;45733;52.668;6.860;2022-08-19T00:06:10;16.30;99.90
59857;DHT22;45733;52.668;6.860;2022-08-19T00:08:37;16.30;99.90
59857;DHT22;45733;52.668;6.860;2022-08-19T00:11:02;16.30;99.90
59857;DHT22;45733;52.668;6.860;2022-08-19T00:13:28;16.30;99.90
59857;DHT22;45733;52.668;6.860;2022-08-19T00:15:55;16.30;99.90
59857;DHT22;45733;52.668;6.860;2022-08-19T00:18:21;16.30;99.90
59857;DHT22;45733;52.668;6.860;2022-08-19T00:20:46;16.30;99.90
59857;DHT22;45733;52.668;6.860;2022-08-19T00:23:12;16.20;99.90
59857;DHT22;45733;52.668;6.860;2022-08-19T00:25:38;16.20;99.90
59857;DHT22;45733;52.668;6.860;2022-08-19T00:28:04;16.20;99.90
59857;DHT22;45733;52.668;6.860;2022-08-19T00:30:30;16.10;99.90
59857;DHT22;45733;52.668;6.860;2022-08-19T00:32:57;16.00;99.90
59857;DHT22;45733;52.668;6.860;2022-08-19T00:35:23;15.90;99.90
59857;DHT22;45733;52.668;6.860;2022-08-19T00:37:49;15.90;99.90
59857;DHT22;45733;52.668;6.860;2022-08-19T00:40:17;15.70;99.90
59857;DHT22;45733;52.668;6.860;2022-08-19T00:42:45;15.80;99.90
59857;DHT22;45733;52.668;6.860;2022-08-19T00:45:16;15.90;99.90
59857;DHT22;45733;52.668;6.860;2022-08-19T00:47:44;15.90;99.90
59857;DHT22;45733;52.668;6.860;2022-08-19T00:50:14;16.00;99.90
59857;DHT22;45733;52.668;6.860;2022-08-19T00:52:43;15.90;99.90
59857;DHT22;45733;52.668;6.860;2022-08-19T00:55:15;15.90;99.90
59857;DHT22;45733;52.668;6.860;2022-08-19T00:57:44;15.90;99.90
59857;DHT22;45733;52.668;6.860;2022-08-19T01:00:14;15.70;99.90
59857;DHT22;45733;52.668;6.860;2022-08-19T01:02:42;15.70;99.90
59857;DHT22;45733;52.668;6.860;2022-08-19T01:05:22;15.60;99.90
59857;DHT22;45733;52.668;6.860;2022-08-19T01:07:49;15.50;99.90
59857;DHT22;45733;52.668;6.860;2022-08-19T01:10:20;15.30;99.90
59857;DHT22;45733;52.668;6.860;2022-08-19T01:12:47;15.40;99.90
59857;DHT22;45733;52.668;6.860;2022-08-19T01:15:19;15.30;99.90
59857;DHT22;45733;52.668;6.860;2022-08-19T01:17:47;15.40;99.90
59857;DHT22;45733;52.668;6.860;2022-08-19T01:20:22;15.30;99.90
59857;DHT22;45733;52.668;6.860;2022-08-19T01:22:55;15.30;99.90
59857;DHT22;45733;52.668;6.860;2022-08-19T01:25:29;15.40;99.90
59857;DHT22;45733;52.668;6.860;2022-08-19T01:27:57;15.50;99.90
59857;DHT22;45733;52.668;6.860;2022-08-19T01:30:27;15.50;99.90
59857;DHT22;45733;52.668;6.860;2022-08-19T01:32:54;15.40;99.90
59857;DHT22;45733;52.668;6.860;2022-08-19T01:35:22;15.40;99.90
59857;DHT22;45733;52.668;6.860;2022-08-19T01:38:01;15.30;99.90
59857;DHT22;45733;52.668;6.860;2022-08-19T01:40:30;15.30;99.90
59857;DHT22;45733;52.668;6.860;2022-08-19T01:42:57;15.30;99.90
59857;DHT22;45733;52.668;6.860;2022-08-19T01:45:24;15.20;99.90
59857;DHT22;45733;52.668;6.860;2022-08-19T01:47:52;15.30;99.90
59857;DHT22;45733;52.668;6.860;2022-08-19T01:50:18;15.30;99.90
59857;DHT22;45733;52.668;6.860;2022-08-19T01:52:44;15.30;99.90
59857;DHT22;45733;52.668;6.860;2022-08-19T01:55:13;15.30;99.90
59857;DHT22;45733;52.668;6.860;2022-08-19T01:57:42;15.50;99.90
59857;DHT22;45733;52.668;6.860;2022-08-19T02:00:12;15.40;99.90
59857;DHT22;45733;52.668;6.860;2022-08-19T02:02:39;15.40;99.90
59857;DHT22;45733;52.668;6.860;2022-08-19T02:05:05;15.40;99.90
59857;DHT22;45733;52.668;6.860;2022-08-19T02:07:33;15.30;99.90
59857;DHT22;45733;52.668;6.860;2022-08-19T02:10:05;15.40;99.90
59857;DHT22;45733;52.668;6.860;2022-08-19T02:12:32;15.30;99.90
59857;DHT22;45733;52.668;6.860;2022-08-19T02:14:59;15.20;99.90
59857;DHT22;45733;52.668;6.860;2022-08-19T02:17:26;15.20;99.90
59857;DHT22;45733;52.668;6.860;2022-08-19T02:19:57;15.20;99.90
59857;DHT22;45733;52.668;6.860;2022-08-19T02:22:24;15.20;99.90
59857;DHT22;45733;52.668;6.860;2022-08-19T02:24:52;15.30;99.90
59857;DHT22;45733;52.668;6.860;2022-08-19T02:27:18;15.40;99.90
59857;DHT22;45733;52.668;6.860;2022-08-19T02:29:46;15.40;99.90
59857;DHT22;45733;52.668;6.860;2022-08-19T02:32:11;15.40;99.90
59857;DHT22;45733;52.668;6.860;2022-08-19T02:34:37;15.40;99.90
59857;DHT22;45733;52.668;6.860;2022-08-19T02:37:03;15.40;99.90
59857;DHT22;45733;52.668;6.860;2022-08-19T02:39:28;15.40;99.90
59857;DHT22;45733;52.668;6.860;2022-08-19T02:41:54;15.30;99.90
59857;DHT22;45733;52.668;6.860;2022-08-19T02:44:20;15.30;99.90
59857;DHT22;45733;52.668;6.860;2022-08-19T02:46:47;15.20;99.90
59857;DHT22;45733;52.668;6.860;2022-08-19T02:49:13;15.20;99.90
59857;DHT22;45733;52.668;6.860;2022-08-19T02:51:44;15.10;99.90
59857;DHT22;45733;52.668;6.860;2022-08-19T02:54:11;15.00;99.90
59857;DHT22;45733;52.668;6.860;2022-08-19T02:56:39;14.90;99.90
59857;DHT22;45733;52.668;6.860;2022-08-19T02:59:06;14.70;99.90
59857;DHT22;45733;52.668;6.860;2022-08-19T03:01:35;14.70;99.90
59857;DHT22;45733;52.668;6.860;2022-08-19T03:04:04;14.70;99.90
59857;DHT22;45733;52.668;6.860;2022-08-19T03:06:31;14.80;99.90
59857;DHT22;45733;52.668;6.860;2022-08-19T03:08:57;14.80;99.90
59857;DHT22;45733;52.668;6.860;2022-08-19T03:11:26;14.70;99.90
59857;DHT22;45733;52.668;6.860;2022-08-19T03:13:53;14.40;99.90
59857;DHT22;45733;52.668;6.860;2022-08-19T03:16:21;14.40;99.90
59857;DHT22;45733;52.668;6.860;2022-08-19T03:18:47;14.40;99.90
59857;DHT22;45733;52.668;6.860;2022-08-19T03:21:24;14.30;99.90
59857;DHT22;45733;52.668;6.860;2022-08-19T03:23:53;14.20;99.90
59857;DHT22;45733;52.668;6.860;2022-08-19T03:26:19;14.30;99.90
59857;DHT22;45733;52.668;6.860;2022-08-19T03:28:45;14.20;99.90
59857;DHT22;45733;52.668;6.860;2022-08-19T03:31:18;14.30;99.90
59857;DHT22;45733;52.668;6.860;2022-08-19T03:33:45;14.30;99.90
59857;DHT22;45733;52.668;6.860;2022-08-19T03:36:14;14.30;99.90
59857;DHT22;45733;52.668;6.860;2022-08-19T03:38:43;14.20;99.90
59857;DHT22;45733;52.668;6.860;2022-08-19T03:41:15;14.30;99.90
59857;DHT22;45733;52.668;6.860;2022-08-19T03:43:42;14.20;99.90
59857;DHT22;45733;52.668;6.860;2022-08-19T03:46:10;14.10;99.90
59857;DHT22;45733;52.668;6.860;2022-08-19T03:48:38;14.20;99.90
59857;DHT22;45733;52.668;6.860;2022-08-19T03:51:05;14.10;99.90
59857;DHT22;45733;52.668;6.860;2022-08-19T03:53:32;14.10;99.90
59857;DHT22;45733;52.668;6.860;2022-08-19T03:55:58;14.10;99.90
59857;DHT22;45733;52.668;6.860;2022-08-19T03:58:29;14.10;99.90
59857;DHT22;45733;52.668;6.860;2022-08-19T04:00:56;14.10;99.90
59857;DHT22;45733;52.668;6.860;2022-08-19T04:03:25;14.10;99.90
59857;DHT22;45733;52.668;6.860;2022-08-19T04:05:53;14.00;99.90
59857;DHT22;45733;52.668;6.860;2022-08-19T04:08:19;14.00;99.90
59857;DHT22;45733;52.668;6.860;2022-08-19T04:10:47;14.00;99.90
59857;DHT22;45733;52.668;6.860;2022-08-19T04:13:15;14.00;99.90
59857;DHT22;45733;52.668;6.860;2022-08-19T04:15:42;14.00;99.90
59857;DHT22;45733;52.668;6.860;2022-08-19T04:18:09;14.00;99.90
59857;DHT22;45733;52.668;6.860;2022-08-19T04:20:43;14.00;99.90
59857;DHT22;45733;52.668;6.860;2022-08-19T04:23:09;14.00;99.90
59857;DHT22;45733;52.668;6.860;2022-08-19T04:25:37;14.00;99.90
59857;DHT22;45733;52.668;6.860;2022-08-19T04:28:12;13.90;99.90
59857;DHT22;45733;52.668;6.860;2022-08-19T04:30:44;13.80;99.90
59857;DHT22;45733;52.668;6.860;2022-08-19T04:33:12;13.80;99.90
59857;DHT22;45733;52.668;6.860;2022-08-19T04:35:44;13.80;99.90
59857;DHT22;45733;52.668;6.860;2022-08-19T04:38:10;13.80;99.90
59857;DHT22;45733;52.668;6.860;2022-08-19T04:40:44;13.70;99.90
59857;DHT22;45733;52.668;6.860;2022-08-19T04:43:33;13.70;99.90
59857;DHT22;45733;52.668;6.860;2022-08-19T04:46:05;13.70;99.90
59857;DHT22;45733;52.668;6.860;2022-08-19T04:48:32;13.70;99.90
59857;DHT22;45733;52.668;6.860;2022-08-19T04:50:58;13.70;99.90
59857;DHT22;45733;52.668;6.860;2022-08-19T04:53:32;13.70;99.90
59857;DHT22;45733;52.668;6.860;2022-08-19T04:56:04;13.70;99.90
59857;DHT22;45733;52.668;6.860;2022-08-19T04:58:31;13.70;99.90
59857;DHT22;45733;52.668;6.860;2022-08-19T05:00:57;13.70;99.90
59857;DHT22;45733;52.668;6.860;2022-08-19T05:03:25;13.70;99.90
59857;DHT22;45733;52.668;6.860;2022-08-19T05:05:51;13.80;99.90
59857;DHT22;45733;52.668;6.860;2022-08-19T05:08:20;14.00;99.90
59857;DHT22;45733;52.668;6.860;2022-08-19T05:10:50;14.70;99.90
59857;DHT22;45733;52.668;6.860;2022-08-19T05:13:18;15.20;99.90
59857;DHT22;45733;52.668;6.860;2022-08-19T05:15:52;15.50;99.90
59857;DHT22;45733;52.668;6.860;2022-08-19T05:18:18;15.50;99.90
59857;DHT22;45733;52.668;6.860;2022-08-19T05:21:07;15.30;99.90
59857;DHT22;45733;52.668;6.860;2022-08-19T05:23:51;15.10;99.90
59857;DHT22;45733;52.668;6.860;2022-08-19T05:26:17;14.90;99.90
59857;DHT22;45733;52.668;6.860;2022-08-19T05:28:43;14.90;99.90
59857;DHT22;45733;52.668;6.860;2022-08-19T05:31:09;14.90;99.90
59857;DHT22;45733;52.668;6.860;2022-08-19T05:33:34;15.00;99.90
59857;DHT22;45733;52.668;6.860;2022-08-19T05:36:01;15.30;99.90
59857;DHT22;45733;52.668;6.860;2022-08-19T05:38:28;15.20;99.90
59857;DHT22;45733;52.668;6.860;2022-08-19T05:40:55;15.50;99.90
59857;DHT22;45733;52.668;6.860;2022-08-19T05:43:21;16.30;99.90
59857;DHT22;45733;52.668;6.860;2022-08-19T05:45:47;17.30;99.90
59857;DHT22;45733;52.668;6.860;2022-08-19T05:48:13;17.60;99.90
59857;DHT22;45733;52.668;6.860;2022-08-19T05:50:40;17.20;99.90
59857;DHT22;45733;52.668;6.860;2022-08-19T05:53:07;17.30;99.90
59857;DHT22;45733;52.668;6.860;2022-08-19T05:55:35;17.00;99.90
59857;DHT22;45733;52.668;6.860;2022-08-19T05:58:02;16.60;99.90
59857;DHT22;45733;52.668;6.860;2022-08-19T06:00:28;16.70;99.90
59857;DHT22;45733;52.668;6.860;2022-08-19T06:02:55;17.20;99.90
59857;DHT22;45733;52.668;6.860;2022-08-19T06:05:21;17.70;99.90
59857;DHT22;45733;52.668;6.860;2022-08-19T06:07:47;17.80;99.90
59857;DHT22;45733;52.668;6.860;2022-08-19T06:10:13;18.00;99.90
59857;DHT22;45733;52.668;6.860;2022-08-19T06:12:39;18.10;99.90
59857;DHT22;45733;52.668;6.860;2022-08-19T06:15:09;18.20;99.90
59857;DHT22;45733;52.668;6.860;2022-08-19T06:17:35;18.50;99.90
59857;DHT22;45733;52.668;6.860;2022-08-19T06:20:03;18.60;99.90
59857;DHT22;45733;52.668;6.860;2022-08-19T06:22:29;19.00;99.90
59857;DHT22;45733;52.668;6.860;2022-08-19T06:24:55;19.40;99.90
59857;DHT22;45733;52.668;6.860;2022-08-19T06:27:22;19.60;99.90
59857;DHT22;45733;52.668;6.860;2022-08-19T06:29:48;19.50;99.90
59857;DHT22;45733;52.668;6.860;2022-08-19T06:32:15;19.80;99.90
59857;DHT22;45733;52.668;6.860;2022-08-19T06:34:42;19.70;99.90
59857;DHT22;45733;52.668;6.860;2022-08-19T06:37:08;19.70;99.90
59857;DHT22;45733;52.668;6.860;2022-08-19T06:39:39;19.80;99.90
59857;DHT22;45733;52.668;6.860;2022-08-19T06:42:06;19.90;99.90
59857;DHT22;45733;52.668;6.860;2022-08-19T06:44:35;19.80;99.90
59857;DHT22;45733;52.668;6.860;2022-08-19T06:47:07;20.10;99.90
59857;DHT22;45733;52.668;6.860;2022-08-19T06:49:34;20.10;99.90
59857;DHT22;45733;52.668;6.860;2022-08-19T06:52:01;20.00;99.90
59857;DHT22;45733;52.668;6.860;2022-08-19T06:54:28;20.30;99.90
59857;DHT22;45733;52.668;6.860;2022-08-19T06:56:56;20.50;99.90
59857;DHT22;45733;52.668;6.860;2022-08-19T06:59:23;20.70;99.90
59857;DHT22;45733;52.668;6.860;2022-08-19T07:01:55;20.80;99.90
59857;DHT22;45733;52.668;6.860;2022-08-19T07:04:29;21.00;99.90
59857;DHT22;45733;52.668;6.860;2022-08-19T07:07:09;21.10;99.90
59857;DHT22;45733;52.668;6.860;2022-08-19T07:09:41;21.10;99.90
59857;DHT22;45733;52.668;6.860;2022-08-19T07:12:09;21.10;99.90
59857;DHT22;45733;52.668;6.860;2022-08-19T07:14:36;21.30;99.90
59857;DHT22;45733;52.668;6.860;2022-08-19T07:17:11;21.40;99.90
59857;DHT22;45733;52.668;6.860;2022-08-19T07:19:38;21.40;99.90
59857;DHT22;45733;52.668;6.860;2022-08-19T07:22:06;21.20;99.90
59857;DHT22;45733;52.668;6.860;2022-08-19T07:24:32;21.50;99.90
59857;DHT22;45733;52.668;6.860;2022-08-19T07:27:00;21.70;99.90
59857;DHT22;45733;52.668;6.860;2022-08-19T07:29:28;21.70;99.90
59857;DHT22;45733;52.668;6.860;2022-08-19T07:31:55;21.90;99.90
59857;DHT22;45733;52.668;6.860;2022-08-19T07:34:23;22.10;99.90
59857;DHT22;45733;52.668;6.860;2022-08-19T07:36:49;22.10;99.90
59857;DHT22;45733;52.668;6.860;2022-08-19T07:39:23;22.30;99.90
59857;DHT22;45733;52.668;6.860;2022-08-19T07:41:49;22.40;99.90
59857;DHT22;45733;52.668;6.860;2022-08-19T07:44:17;22.40;99.90
59857;DHT22;45733;52.668;6.860;2022-08-19T07:46:48;22.50;99.90
59857;DHT22;45733;52.668;6.860;2022-08-19T07:49:16;22.70;99.90
59857;DHT22;45733;52.668;6.860;2022-08-19T07:51:50;22.80;99.90
59857;DHT22;45733;52.668;6.860;2022-08-19T07:54:16;22.90;99.90
59857;DHT22;45733;52.668;6.860;2022-08-19T07:56:44;23.00;99.90
59857;DHT22;45733;52.668;6.860;2022-08-19T07:59:10;22.80;99.90
59857;DHT22;45733;52.668;6.860;2022-08-19T08:01:38;22.70;99.90
59857;DHT22;45733;52.668;6.860;2022-08-19T08:04:06;22.70;99.90
59857;DHT22;45733;52.668;6.860;2022-08-19T08:06:52;22.70;99.90
59857;DHT22;45733;52.668;6.860;2022-08-19T08:09:39;22.80;99.90
59857;DHT22;45733;52.668;6.860;2022-08-19T08:12:18;23.10;99.90
59857;DHT22;45733;52.668;6.860;2022-08-19T08:14:51;23.30;99.90
59857;DHT22;45733;52.668;6.860;2022-08-19T08:17:19;23.50;99.90
59857;DHT22;45733;52.668;6.860;2022-08-19T08:19:47;23.60;99.90
59857;DHT22;45733;52.668;6.860;2022-08-19T08:22:17;23.70;99.90
59857;DHT22;45733;52.668;6.860;2022-08-19T08:25:07;23.90;99.90
59857;DHT22;45733;52.668;6.860;2022-08-19T08:27:40;24.00;99.90
59857;DHT22;45733;52.668;6.860;2022-08-19T08:30:11;24.10;99.90
59857;DHT22;45733;52.668;6.860;2022-08-19T08:32:38;24.20;99.90
59857;DHT22;45733;52.668;6.860;2022-08-19T08:35:10;24.20;99.90
59857;DHT22;45733;52.668;6.860;2022-08-19T08:37:37;24.10;99.90
59857;DHT22;45733;52.668;6.860;2022-08-19T08:40:10;24.30;99.90
59857;DHT22;45733;52.668;6.860;2022-08-19T08:42:46;24.50;99.90
59857;DHT22;45733;52.668;6.860;2022-08-19T08:45:16;24.70;99.90
59857;DHT22;45733;52.668;6.860;2022-08-19T08:47:50;24.90;99.90
59857;DHT22;45733;52.668;6.860;2022-08-19T08:50:34;25.10;99.90
59857;DHT22;45733;52.668;6.860;2022-08-19T08:53:01;25.30;99.90
59857;DHT22;45733;52.668;6.860;2022-08-19T08:55:29;25.50;99.90
59857;DHT22;45733;52.668;6.860;2022-08-19T08:58:20;25.60;99.90
59857;DHT22;45733;52.668;6.860;2022-08-19T09:00:49;25.70;99.90
59857;DHT22;45733;52.668;6.860;2022-08-19T09:03:26;25.80;99.90
59857;DHT22;45733;52.668;6.860;2022-08-19T09:06:55;25.90;99.90
59857;DHT22;45733;52.668;6.860;2022-08-19T09:08:57;26.10;99.90
59857;DHT22;45733;52.668;6.860;2022-08-19T09:11:55;26.10;99.90
59857;DHT22;45733;52.668;6.860;2022-08-19T09:16:47;26.30;99.90
59857;DHT22;45733;52.668;6.860;2022-08-19T09:19:15;26.30;99.90
59857;DHT22;45733;52.668;6.860;2022-08-19T09:21:43;26.50;99.90
59857;DHT22;45733;52.668;6.860;2022-08-19T09:24:09;26.60;99.90
59857;DHT22;45733;52.668;6.860;2022-08-19T09:26:34;26.70;99.90
59857;DHT22;45733;52.668;6.860;2022-08-19T09:29:00;26.80;99.90
59857;DHT22;45733;52.668;6.860;2022-08-19T09:31:30;27.00;99.90
59857;DHT22;45733;52.668;6.860;2022-08-19T09:33:58;26.80;99.90
59857;DHT22;45733;52.668;6.860;2022-08-19T09:36:26;26.90;99.90
59857;DHT22;45733;52.668;6.860;2022-08-19T09:38:55;26.80;99.90
59857;DHT22;45733;52.668;6.860;2022-08-19T09:41:23;26.80;99.90
59857;DHT22;45733;52.668;6.860;2022-08-19T09:43:51;26.90;99.90
59857;DHT22;45733;52.668;6.860;2022-08-19T09:46:18;27.00;99.90
59857;DHT22;45733;52.668;6.860;2022-08-19T09:48:47;27.20;99.90
59857;DHT22;45733;52.668;6.860;2022-08-19T09:51:17;27.40;99.90
59857;DHT22;45733;52.668;6.860;2022-08-19T09:53:45;27.10;99.90
59857;DHT22;45733;52.668;6.860;2022-08-19T09:56:11;26.90;99.90
59857;DHT22;45733;52.668;6.860;2022-08-19T09:58:38;27.10;99.90
59857;DHT22;45733;52.668;6.860;2022-08-19T10:01:06;27.30;99.90
59857;DHT22;45733;52.668;6.860;2022-08-19T10:03:36;27.00;99.90
59857;DHT22;45733;52.668;6.860;2022-08-19T10:06:04;26.90;99.90
59857;DHT22;45733;52.668;6.860;2022-08-19T10:08:34;27.30;99.90
59857;DHT22;45733;52.668;6.860;2022-08-19T10:11:00;27.50;99.90
59857;DHT22;45733;52.668;6.860;2022-08-19T10:13:28;27.70;99.90
59857;DHT22;45733;52.668;6.860;2022-08-19T10:16:01;27.70;99.90
59857;DHT22;45733;52.668;6.860;2022-08-19T10:18:27;27.40;99.90
59857;DHT22;45733;52.668;6.860;2022-08-19T10:21:09;28.00;99.90
59857;DHT22;45733;52.668;6.860;2022-08-19T10:23:37;28.10;99.90
59857;DHT22;45733;52.668;6.860;2022-08-19T10:26:04;28.30;99.90
59857;DHT22;45733;52.668;6.860;2022-08-19T10:28:34;28.10;99.90
59857;DHT22;45733;52.668;6.860;2022-08-19T10:31:11;28.10;99.90
59857;DHT22;45733;52.668;6.860;2022-08-19T10:33:38;28.40;99.90
59857;DHT22;45733;52.668;6.860;2022-08-19T10:36:10;28.70;99.90
59857;DHT22;45733;52.668;6.860;2022-08-19T10:38:37;28.80;99.90
59857;DHT22;45733;52.668;6.860;2022-08-19T10:41:11;28.80;99.90
59857;DHT22;45733;52.668;6.860;2022-08-19T10:43:38;29.20;99.90
59857;DHT22;45733;52.668;6.860;2022-08-19T10:46:15;29.10;99.90
59857;DHT22;45733;52.668;6.860;2022-08-19T10:48:42;29.30;99.90
59857;DHT22;45733;52.668;6.860;2022-08-19T10:51:08;29.40;99.90
59857;DHT22;45733;52.668;6.860;2022-08-19T10:53:52;29.10;99.90
59857;DHT22;45733;52.668;6.860;2022-08-19T10:56:18;28.80;99.90
59857;DHT22;45733;52.668;6.860;2022-08-19T10:59:03;29.30;99.90
59857;DHT22;45733;52.668;6.860;2022-08-19T11:01:30;29.60;99.90
59857;DHT22;45733;52.668;6.860;2022-08-19T11:03:57;29.60;99.90
59857;DHT22;45733;52.668;6.860;2022-08-19T11:06:24;29.70;99.90
59857;DHT22;45733;52.668;6.860;2022-08-19T11:08:53;29.90;99.90
59857;DHT22;45733;52.668;6.860;2022-08-19T11:11:20;29.80;99.90
59857;DHT22;45733;52.668;6.860;2022-08-19T11:13:47;29.90;99.90
59857;DHT22;45733;52.668;6.860;2022-08-19T11:16:16;30.00;99.90
59857;DHT22;45733;52.668;6.860;2022-08-19T11:18:45;30.00;99.90
59857;DHT22;45733;52.668;6.860;2022-08-19T11:23:45;29.90;99.90
59857;DHT22;45733;52.668;6.860;2022-08-19T11:26:10;30.00;99.90
59857;DHT22;45733;52.668;6.860;2022-08-19T11:28:37;30.00;99.90
59857;DHT22;45733;52.668;6.860;2022-08-19T11:31:03;30.20;99.90
59857;DHT22;45733;52.668;6.860;2022-08-19T11:33:30;30.10;99.90
59857;DHT22;45733;52.668;6.860;2022-08-19T11:35:59;30.30;99.90
59857;DHT22;45733;52.668;6.860;2022-08-19T11:38:26;30.10;99.90
59857;DHT22;45733;52.668;6.860;2022-08-19T11:41:00;29.90;99.90
59857;DHT22;45733;52.668;6.860;2022-08-19T11:43:27;30.20;99.90
59857;DHT22;45733;52.668;6.860;2022-08-19T11:45:54;30.20;99.90
59857;DHT22;45733;52.668;6.860;2022-08-19T11:48:21;30.60;99.90
59857;DHT22;45733;52.668;6.860;2022-08-19T11:50:52;30.60;99.90
59857;DHT22;45733;52.668;6.860;2022-08-19T11:53:20;30.80;99.90
59857;DHT22;45733;52.668;6.860;2022-08-19T11:55:50;30.80;99.90
59857;DHT22;45733;52.668;6.860;2022-08-19T11:58:19;30.70;99.90
59857;DHT22;45733;52.668;6.860;2022-08-19T12:00:45;30.70;99.90
59857;DHT22;45733;52.668;6.860;2022-08-19T12:03:12;30.80;99.90
59857;DHT22;45733;52.668;6.860;2022-08-19T12:05:39;30.40;99.90
59857;DHT22;45733;52.668;6.860;2022-08-19T12:08:05;30.10;99.90
59857;DHT22;45733;52.668;6.860;2022-08-19T12:10:32;30.20;99.90
59857;DHT22;45733;52.668;6.860;2022-08-19T12:12:57;29.50;99.90
59857;DHT22;45733;52.668;6.860;2022-08-19T12:15:23;29.30;99.90
59857;DHT22;45733;52.668;6.860;2022-08-19T12:17:49;29.50;99.90
59857;DHT22;45733;52.668;6.860;2022-08-19T12:20:15;29.80;99.90
59857;DHT22;45733;52.668;6.860;2022-08-19T12:22:43;30.00;99.90
59857;DHT22;45733;52.668;6.860;2022-08-19T12:25:10;30.20;99.90
59857;DHT22;45733;52.668;6.860;2022-08-19T12:27:37;30.00;99.90
59857;DHT22;45733;52.668;6.860;2022-08-19T12:30:05;29.20;99.90
59857;DHT22;45733;52.668;6.860;2022-08-19T12:32:32;29.00;99.90
59857;DHT22;45733;52.668;6.860;2022-08-19T12:34:57;29.30;99.90
59857;DHT22;45733;52.668;6.860;2022-08-19T12:37:23;29.40;99.90
59857;DHT22;45733;52.668;6.860;2022-08-19T12:39:49;29.60;99.90
59857;DHT22;45733;52.668;6.860;2022-08-19T12:42:15;30.10;99.90
59857;DHT22;45733;52.668;6.860;2022-08-19T12:44:42;30.20;99.90
59857;DHT22;45733;52.668;6.860;2022-08-19T12:47:10;29.60;99.90
59857;DHT22;45733;52.668;6.860;2022-08-19T12:49:36;29.50;99.90
59857;DHT22;45733;52.668;6.860;2022-08-19T12:52:06;29.70;99.90
59857;DHT22;45733;52.668;6.860;2022-08-19T12:54:34;30.10;99.90
59857;DHT22;45733;52.668;6.860;2022-08-19T12:56:59;30.30;99.90
59857;DHT22;45733;52.668;6.860;2022-08-19T12:59:26;30.20;99.90
59857;DHT22;45733;52.668;6.860;2022-08-19T13:01:52;30.30;99.90
59857;DHT22;45733;52.668;6.860;2022-08-19T13:04:18;29.70;99.90
59857;DHT22;45733;52.668;6.860;2022-08-19T13:06:44;29.10;99.90
59857;DHT22;45733;52.668;6.860;2022-08-19T13:09:10;28.90;99.90
59857;DHT22;45733;52.668;6.860;2022-08-19T13:11:37;28.60;99.90
59857;DHT22;45733;52.668;6.860;2022-08-19T13:14:03;28.30;99.90
59857;DHT22;45733;52.668;6.860;2022-08-19T13:16:30;28.00;99.90
59857;DHT22;45733;52.668;6.860;2022-08-19T13:18:57;27.80;99.90
59857;DHT22;45733;52.668;6.860;2022-08-19T13:21:25;27.30;99.90
59857;DHT22;45733;52.668;6.860;2022-08-19T13:23:51;27.20;99.90
59857;DHT22;45733;52.668;6.860;2022-08-19T13:26:18;27.00;99.90
59857;DHT22;45733;52.668;6.860;2022-08-19T13:28:45;27.00;99.90
59857;DHT22;45733;52.668;6.860;2022-08-19T13:31:32;26.90;99.90
59857;DHT22;45733;52.668;6.860;2022-08-19T13:34:19;27.30;99.90
59857;DHT22;45733;52.668;6.860;2022-08-19T13:36:46;27.40;99.90
59857;DHT22;45733;52.668;6.860;2022-08-19T13:39:12;27.50;99.90
59857;DHT22;45733;52.668;6.860;2022-08-19T13:41:44;27.60;99.90
59857;DHT22;45733;52.668;6.860;2022-08-19T13:44:14;27.70;99.90
59857;DHT22;45733;52.668;6.860;2022-08-19T13:46:41;27.90;99.90
59857;DHT22;45733;52.668;6.860;2022-08-19T13:49:12;27.80;99.90
59857;DHT22;45733;52.668;6.860;2022-08-19T13:51:41;27.90;99.90
59857;DHT22;45733;52.668;6.860;2022-08-19T13:54:09;28.00;99.90
59857;DHT22;45733;52.668;6.860;2022-08-19T13:56:39;27.90;99.90
59857;DHT22;45733;52.668;6.860;2022-08-19T13:59:05;28.00;99.90
59857;DHT22;45733;52.668;6.860;2022-08-19T14:01:31;28.00;99.90
59857;DHT22;45733;52.668;6.860;2022-08-19T14:03:56;28.00;99.90
59857;DHT22;45733;52.668;6.860;2022-08-19T14:06:22;28.20;99.90
59857;DHT22;45733;52.668;6.860;2022-08-19T14:08:48;28.10;99.90
59857;DHT22;45733;52.668;6.860;2022-08-19T14:11:14;27.90;99.90
59857;DHT22;45733;52.668;6.860;2022-08-19T14:13:40;27.90;99.90
59857;DHT22;45733;52.668;6.860;2022-08-19T14:16:08;28.00;99.90
59857;DHT22;45733;52.668;6.860;2022-08-19T14:18:34;28.10;99.90
59857;DHT22;45733;52.668;6.860;2022-08-19T14:21:00;28.30;99.90
59857;DHT22;45733;52.668;6.860;2022-08-19T14:23:26;28.60;99.90
59857;DHT22;45733;52.668;6.860;2022-08-19T14:25:51;28.80;99.90
59857;DHT22;45733;52.668;6.860;2022-08-19T14:28:17;29.00;99.90
59857;DHT22;45733;52.668;6.860;2022-08-19T14:30:43;29.20;99.90
59857;DHT22;45733;52.668;6.860;2022-08-19T14:33:10;29.50;99.90
59857;DHT22;45733;52.668;6.860;2022-08-19T14:35:36;29.60;99.90
59857;DHT22;45733;52.668;6.860;2022-08-19T14:38:04;29.90;99.90
59857;DHT22;45733;52.668;6.860;2022-08-19T14:40:30;30.10;99.90
59857;DHT22;45733;52.668;6.860;2022-08-19T14:42:58;29.60;99.90
59857;DHT22;45733;52.668;6.860;2022-08-19T14:45:30;29.20;98.70
59857;DHT22;45733;52.668;6.860;2022-08-19T14:47:56;29.00;99.90
59857;DHT22;45733;52.668;6.860;2022-08-19T14:50:22;28.90;99.90
59857;DHT22;45733;52.668;6.860;2022-08-19T14:52:49;28.70;99.90
59857;DHT22;45733;52.668;6.860;2022-08-19T14:55:16;28.60;99.90
59857;DHT22;45733;52.668;6.860;2022-08-19T14:57:42;28.40;99.90
59857;DHT22;45733;52.668;6.860;2022-08-19T15:00:09;28.60;99.90
59857;DHT22;45733;52.668;6.860;2022-08-19T15:02:39;28.90;99.90
59857;DHT22;45733;52.668;6.860;2022-08-19T15:05:05;29.20;99.90
59857;DHT22;45733;52.668;6.860;2022-08-19T15:07:31;29.40;99.90
59857;DHT22;45733;52.668;6.860;2022-08-19T15:09:57;29.30;99.10
59857;DHT22;45733;52.668;6.860;2022-08-19T15:12:24;29.60;99.80
59857;DHT22;45733;52.668;6.860;2022-08-19T15:14:50;29.80;99.90
59857;DHT22;45733;52.668;6.860;2022-08-19T15:17:17;29.50;99.90
59857;DHT22;45733;52.668;6.860;2022-08-19T15:19:44;29.60;99.90
59857;DHT22;45733;52.668;6.860;2022-08-19T15:22:10;29.60;99.90
59857;DHT22;45733;52.668;6.860;2022-08-19T15:24:36;29.40;99.90
59857;DHT22;45733;52.668;6.860;2022-08-19T15:27:04;29.40;99.90
59857;DHT22;45733;52.668;6.860;2022-08-19T15:29:30;29.50;99.90
59857;DHT22;45733;52.668;6.860;2022-08-19T15:31:57;29.40;99.90
59857;DHT22;45733;52.668;6.860;2022-08-19T15:34:24;28.80;99.90
59857;DHT22;45733;52.668;6.860;2022-08-19T15:36:54;28.50;99.90
59857;DHT22;45733;52.668;6.860;2022-08-19T15:39:19;28.00;99.90
59857;DHT22;45733;52.668;6.860;2022-08-19T15:41:46;27.90;99.90
59857;DHT22;45733;52.668;6.860;2022-08-19T15:44:15;27.70;99.90